»·PEaware :: SWA549 KSAN-KRNO

SWA549 :: KSAN-KRNO

FLIGHT INFORMATION

Flight Status: Arrived
Operator:
Southwest Airlines
More flights by this operator :: More flights under this callsign
Pilot: Brian T. (24242)
Aircraft: BOEING 737-800
(B738)
More flights by this aircraft type
Origin: KSAN San Diego Intl-Lindbergh
United States
Destination: KRNO Reno/Tahoe Intl
United States
More flights between these airports :: More routes between these airports
Route: PADRZ2 EHF FMG
File this flight plan on PilotEdge
Remarks: Flying in VR (so give me a minute on those freq changes).
Altitude:
(Current/Filed)
38,000ft
Speed:
(Current/Filed)
460kts
Departed: 28-Oct-19 04:03 PM
Arrived: 28-Oct-19 05:17 PM
Distance/Time
Traveled:
425nm/1:14
Distance/Time
To Go:
Arrived

Flight Plot

Page will automatically refresh every two minutes.

Flight plan parsing failed; only flown route is shown


Map Options




Map Legend


Flown Route
Filed Route
Departure Airport
Arrival Airport
Navaid (VOR, NDB)
Fix

Horizontal Profiles

Position Reports

Time Latitude Longitude Heading Altitude Ground
Speed
28-Oct-19 15:19 32.732768 -117.197022 132 25ft 0kts
28-Oct-19 15:20 32.732768 -117.197022 132 25ft 0kts
28-Oct-19 15:21 32.732768 -117.197022 132 25ft 0kts
28-Oct-19 15:22 32.732768 -117.197022 132 25ft 0kts
28-Oct-19 15:23 32.732768 -117.197022 132 25ft 0kts
28-Oct-19 15:24 32.732768 -117.197022 132 25ft 0kts
28-Oct-19 15:25 32.732768 -117.197022 132 25ft 0kts
28-Oct-19 15:26 32.732768 -117.197022 132 25ft 0kts
28-Oct-19 15:27 32.732768 -117.197022 132 25ft 0kts
28-Oct-19 15:28 32.732768 -117.197022 132 25ft 0kts
28-Oct-19 15:29 32.732768 -117.197022 132 25ft 0kts
28-Oct-19 15:30 32.732768 -117.197022 132 25ft 0kts
28-Oct-19 15:31 32.732768 -117.197022 132 25ft 0kts
28-Oct-19 15:32 32.732768 -117.197022 132 25ft 0kts
28-Oct-19 15:33 32.732768 -117.197022 132 25ft 0kts
28-Oct-19 15:34 32.732768 -117.197022 132 25ft 0kts
28-Oct-19 15:35 32.732768 -117.197022 132 25ft 0kts
28-Oct-19 15:36 32.732768 -117.197022 132 25ft 0kts
28-Oct-19 15:36 32.732768 -117.197022 132 25ft 0kts
28-Oct-19 15:38 32.732768 -117.197022 132 25ft 0kts
28-Oct-19 15:39 32.732768 -117.197022 132 25ft 0kts
28-Oct-19 15:39 32.732768 -117.197022 132 25ft 0kts
28-Oct-19 15:41 32.732768 -117.197022 132 25ft 0kts
28-Oct-19 15:42 32.732768 -117.197022 132 25ft 0kts
28-Oct-19 15:42 32.732768 -117.197022 132 25ft 0kts
28-Oct-19 15:44 32.732768 -117.197022 132 25ft 0kts
28-Oct-19 15:44 32.732768 -117.197022 132 25ft 0kts
28-Oct-19 15:45 32.732768 -117.197022 132 25ft 0kts
28-Oct-19 15:46 32.732768 -117.197022 132 25ft 0kts
28-Oct-19 15:47 32.732768 -117.197022 132 25ft 0kts
28-Oct-19 15:48 32.732768 -117.197022 132 25ft 0kts
28-Oct-19 15:49 32.732768 -117.197022 132 25ft 0kts
28-Oct-19 15:50 32.732768 -117.197022 132 25ft 0kts
28-Oct-19 15:51 32.732955 -117.197190 160 25ft 2kts
28-Oct-19 15:52 32.733519 -117.197092 198 25ft 2kts
28-Oct-19 15:53 32.734041 -117.196993 162 25ft 2kts
28-Oct-19 15:54 32.734415 -117.197453 104 25ft 1kts
28-Oct-19 15:55 32.734420 -117.197474 105 24ft 0kts
28-Oct-19 15:56 32.734420 -117.197474 105 24ft 0kts
28-Oct-19 15:57 32.734267 -117.196822 105 24ft 10kts
28-Oct-19 15:58 32.732849 -117.190990 105 24ft 19kts
28-Oct-19 15:59 32.731297 -117.184585 106 25ft 18kts
28-Oct-19 16:00 32.729852 -117.178670 104 24ft 17kts
28-Oct-19 16:01 32.730189 -117.175769 290 25ft 6kts
28-Oct-19 16:02 32.736210 -117.201248 283 147ft 175kts
28-Oct-19 16:03 32.761290 -117.253494 305 2240ft 212kts
28-Oct-19 16:04 32.799609 -117.318223 304 4434ft 255kts
28-Oct-19 16:05 32.844154 -117.387035 307 7254ft 268kts
28-Oct-19 16:06 32.890915 -117.459651 307 9876ft 286kts
28-Oct-19 16:07 32.943312 -117.540791 308 11598ft 335kts
28-Oct-19 16:08 33.001604 -117.632489 307 14083ft 355kts
28-Oct-19 16:09 33.062699 -117.726306 312 16885ft 365kts
28-Oct-19 16:10 33.139575 -117.806641 318 19477ft 374kts
28-Oct-19 16:11 33.220501 -117.888169 319 21789ft 385kts
28-Oct-19 16:12 33.306965 -117.967047 331 23863ft 398kts
28-Oct-19 16:13 33.412393 -118.021377 334 25766ft 411kts
28-Oct-19 16:14 33.521994 -118.076867 333 27546ft 421kts
28-Oct-19 16:15 33.635401 -118.134439 333 29186ft 431kts
28-Oct-19 16:16 33.746966 -118.191199 333 31036ft 431kts
28-Oct-19 16:17 33.856968 -118.247291 332 32904ft 425kts
28-Oct-19 16:18 33.965085 -118.302580 332 34566ft 419kts
28-Oct-19 16:19 34.072189 -118.357489 332 35969ft 415kts
28-Oct-19 16:20 34.178956 -118.412391 332 37065ft 415kts
28-Oct-19 16:21 34.284968 -118.467051 332 37971ft 414kts
28-Oct-19 16:22 34.392616 -118.522779 332 38009ft 426kts
28-Oct-19 16:23 34.501887 -118.579446 332 38019ft 423kts
28-Oct-19 16:24 34.611759 -118.636603 332 38042ft 424kts
28-Oct-19 16:25 34.720978 -118.693651 332 38102ft 423kts
28-Oct-19 16:26 34.828729 -118.750157 332 38110ft 423kts
28-Oct-19 16:27 34.936798 -118.806965 334 38106ft 417kts
28-Oct-19 16:28 35.045828 -118.864429 338 38092ft 417kts
28-Oct-19 16:29 35.157367 -118.923326 338 38063ft 423kts
28-Oct-19 16:30 35.266803 -118.981343 338 38050ft 425kts
28-Oct-19 16:31 35.375858 -119.039307 338 38045ft 429kts
28-Oct-19 16:32 35.486476 -119.094041 348 38056ft 425kts
28-Oct-19 16:33 35.606423 -119.113318 355 38047ft 424kts
28-Oct-19 16:34 35.728745 -119.129319 355 38058ft 424kts
28-Oct-19 16:35 35.850041 -119.145309 355 38065ft 425kts
28-Oct-19 16:36 35.968171 -119.160923 355 38076ft 425kts
28-Oct-19 16:37 36.089979 -119.177110 355 38073ft 425kts
28-Oct-19 16:38 36.208062 -119.192827 355 38078ft 426kts
28-Oct-19 16:39 36.325487 -119.208439 355 38077ft 424kts
28-Oct-19 16:40 36.442817 -119.224169 355 38075ft 426kts
28-Oct-19 16:41 36.560661 -119.239992 355 38072ft 425kts
28-Oct-19 16:42 36.679091 -119.255900 355 38072ft 425kts
28-Oct-19 16:43 36.796533 -119.271780 355 38073ft 424kts
28-Oct-19 16:44 36.913762 -119.287652 355 38068ft 424kts
28-Oct-19 16:45 37.030518 -119.303514 355 38069ft 418kts
28-Oct-19 16:46 37.144893 -119.319119 354 38077ft 403kts
28-Oct-19 16:47 37.257447 -119.334485 354 38100ft 404kts
28-Oct-19 16:48 37.370513 -119.350001 354 38101ft 406kts
28-Oct-19 16:49 37.483448 -119.365527 354 38100ft 404kts
28-Oct-19 16:50 37.596668 -119.381150 354 38109ft 405kts
28-Oct-19 16:51 37.709245 -119.396737 354 38106ft 404kts
28-Oct-19 16:52 37.824187 -119.412679 354 38105ft 405kts
28-Oct-19 16:53 37.936337 -119.428296 354 38101ft 405kts
28-Oct-19 16:54 38.050302 -119.444218 354 37726ft 403kts
28-Oct-19 16:55 38.163515 -119.460077 354 36722ft 402kts
28-Oct-19 16:56 38.277712 -119.476109 354 35343ft 405kts
28-Oct-19 16:57 38.393512 -119.492432 354 33411ft 408kts
28-Oct-19 16:58 38.511715 -119.509170 354 30994ft 421kts
28-Oct-19 16:59 38.631486 -119.526175 353 27888ft 410kts
28-Oct-19 17:00 38.747797 -119.542747 353 24965ft 397kts
28-Oct-19 17:01 38.859606 -119.558729 353 22135ft 384kts
28-Oct-19 17:02 38.965880 -119.573957 351 19538ft 368kts
28-Oct-19 17:03 39.067481 -119.588565 350 16860ft 357kts
28-Oct-19 17:04 39.167542 -119.603000 350 14175ft 348kts
28-Oct-19 17:05 39.265834 -119.617222 351 11605ft 338kts
28-Oct-19 17:06 39.354357 -119.630035 351 11012ft 278kts
28-Oct-19 17:07 39.429276 -119.641768 350 10129ft 262kts
28-Oct-19 17:08 39.502488 -119.655326 350 8655ft 260kts
28-Oct-19 17:09 39.575562 -119.669970 349 7455ft 247kts
28-Oct-19 17:10 39.639293 -119.681966 350 7419ft 225kts
28-Oct-19 17:11 39.691143 -119.711554 282 7431ft 196kts
28-Oct-19 17:12 39.675367 -119.774326 194 7421ft 193kts
28-Oct-19 17:13 39.620167 -119.768958 183 6674ft 179kts
28-Oct-19 17:14 39.571633 -119.769040 180 5660ft 166kts
28-Oct-19 17:15 39.526139 -119.769122 179 4759ft 162kts
28-Oct-19 17:16 39.492201 -119.769307 180 4423ft 39kts
28-Oct-19 17:17 39.489992 -119.770688 357 4423ft 4kts
28-Oct-19 17:18 39.493185 -119.770683 0 4423ft 18kts
28-Oct-19 17:19 39.499234 -119.770669 359 4423ft 20kts
28-Oct-19 17:20 39.503724 -119.771090 281 4423ft 8kts
28-Oct-19 17:21 39.504046 -119.773716 347 4423ft 5kts
28-Oct-19 17:22 39.504411 -119.773752 358 4423ft 0kts
28-Oct-19 17:23 39.504411 -119.773752 358 4423ft 0kts
28-Oct-19 17:24 39.504411 -119.773752 358 4423ft 0kts
28-Oct-19 17:25 39.504411 -119.773752 358 4423ft 0kts
28-Oct-19 17:26 39.504411 -119.773752 358 4423ft 0kts
28-Oct-19 17:27 39.504411 -119.773752 358 4423ft 0kts
28-Oct-19 17:28 39.504411 -119.773752 358 4423ft 0kts
28-Oct-19 17:29 39.504411 -119.773752 358 4423ft 0kts
28-Oct-19 17:30 39.504411 -119.773752 358 4423ft 0kts

Navigation Log

Ident Type
Flight plan parsing failed, navigation log unavailable